Pendleton, North Carolina
Current Conditions -  °F | °C
As of 10:55 PM on Wednesday 22 Oct 2014 (Local Time) from KASJ Reporting Station
Overcast Overcast  
Wind Chill: 54°   Ceiling: 4200
Heat Index: 54°   Visibility: 10mi
Dew Point: 46°   Wind: 5mph
Humidity: 74%   Direction: 330°NNW
Pressure: 29.97"   Gusts: NA
Location:  36.47°N, 77.2°W
Report Text: KASJ 230255Z AUTO 33004KT 10SM OVC042 12/08 A2997 RMK AO2 T01210076
Loading
Personal Weather Stations






























Interactive Weather Map
Tropical Storm Tracking
New forecast layout! Learn more

10-Day Weather Forecast

Advertisements
Track Severe Weather on mobile